sensor_id;sensor_type;location;lat;lon;timestamp;temperature;humidity
79467;SHT30;68933;49.726;9.226;2023-11-18T00:00:50;8.6;79
79467;SHT30;68933;49.726;9.226;2023-11-18T00:03:03;8.6;79
79467;SHT30;68933;49.726;9.226;2023-11-18T00:05:16;8.6;79
79467;SHT30;68933;49.726;9.226;2023-11-18T00:07:29;8.6;79
79467;SHT30;68933;49.726;9.226;2023-11-18T00:09:42;8.6;79
79467;SHT30;68933;49.726;9.226;2023-11-18T00:11:55;8.6;79
79467;SHT30;68933;49.726;9.226;2023-11-18T00:14:08;8.5;79
79467;SHT30;68933;49.726;9.226;2023-11-18T00:16:21;8.5;79
79467;SHT30;68933;49.726;9.226;2023-11-18T00:18:34;8.5;78
79467;SHT30;68933;49.726;9.226;2023-11-18T00:20:47;8.5;78
79467;SHT30;68933;49.726;9.226;2023-11-18T00:23:00;8.5;78
79467;SHT30;68933;49.726;9.226;2023-11-18T00:25:13;8.5;78
79467;SHT30;68933;49.726;9.226;2023-11-18T00:29:35;8.5;78
79467;SHT30;68933;49.726;9.226;2023-11-18T00:31:47;8.4;78
79467;SHT30;68933;49.726;9.226;2023-11-18T00:34:00;8.4;78
79467;SHT30;68933;49.726;9.226;2023-11-18T00:36:13;8.4;78
79467;SHT30;68933;49.726;9.226;2023-11-18T00:38:26;8.2;77
79467;SHT30;68933;49.726;9.226;2023-11-18T00:40:39;8.2;77
79467;SHT30;68933;49.726;9.226;2023-11-18T00:42:52;8.2;77
79467;SHT30;68933;49.726;9.226;2023-11-18T00:45:05;8.2;77
79467;SHT30;68933;49.726;9.226;2023-11-18T00:47:18;8.1;77
79467;SHT30;68933;49.726;9.226;2023-11-18T00:49:31;8.1;77
79467;SHT30;68933;49.726;9.226;2023-11-18T00:51:44;8.1;78
79467;SHT30;68933;49.726;9.226;2023-11-18T00:53:57;8.1;78
79467;SHT30;68933;49.726;9.226;2023-11-18T00:56:12;8.1;78
79467;SHT30;68933;49.726;9.226;2023-11-18T00:58:23;8.1;78
79467;SHT30;68933;49.726;9.226;2023-11-18T01:00:36;8.1;78
79467;SHT30;68933;49.726;9.226;2023-11-18T01:02:49;8;77
79467;SHT30;68933;49.726;9.226;2023-11-18T01:05:02;8;77
79467;SHT30;68933;49.726;9.226;2023-11-18T01:07:15;8;77
79467;SHT30;68933;49.726;9.226;2023-11-18T01:09:28;8;77
79467;SHT30;68933;49.726;9.226;2023-11-18T01:11:41;8;77
79467;SHT30;68933;49.726;9.226;2023-11-18T01:13:54;8;78
79467;SHT30;68933;49.726;9.226;2023-11-18T01:16:07;8;78
79467;SHT30;68933;49.726;9.226;2023-11-18T01:18:20;8;77
79467;SHT30;68933;49.726;9.226;2023-11-18T01:20:33;8;77
79467;SHT30;68933;49.726;9.226;2023-11-18T01:22:46;8;77
79467;SHT30;68933;49.726;9.226;2023-11-18T01:24:59;8;77
79467;SHT30;68933;49.726;9.226;2023-11-18T01:27:12;8;77
79467;SHT30;68933;49.726;9.226;2023-11-18T01:29:25;7.9;77
79467;SHT30;68933;49.726;9.226;2023-11-18T01:31:38;7.9;77
79467;SHT30;68933;49.726;9.226;2023-11-18T01:33:51;7.9;77
79467;SHT30;68933;49.726;9.226;2023-11-18T01:36:04;7.9;77
79467;SHT30;68933;49.726;9.226;2023-11-18T01:38:17;7.9;77
79467;SHT30;68933;49.726;9.226;2023-11-18T01:40:30;7.8;77
79467;SHT30;68933;49.726;9.226;2023-11-18T01:42:43;7.8;77
79467;SHT30;68933;49.726;9.226;2023-11-18T01:44:56;7.8;77
79467;SHT30;68933;49.726;9.226;2023-11-18T01:47:09;7.8;77
79467;SHT30;68933;49.726;9.226;2023-11-18T01:49:22;7.9;78
79467;SHT30;68933;49.726;9.226;2023-11-18T01:51:35;7.9;78
79467;SHT30;68933;49.726;9.226;2023-11-18T01:53:48;7.9;78
79467;SHT30;68933;49.726;9.226;2023-11-18T01:56:02;7.8;77
79467;SHT30;68933;49.726;9.226;2023-11-18T01:58:14;7.8;77
79467;SHT30;68933;49.726;9.226;2023-11-18T02:00:27;7.8;77
79467;SHT30;68933;49.726;9.226;2023-11-18T02:02:40;7.8;77
79467;SHT30;68933;49.726;9.226;2023-11-18T02:04:53;7.8;77
79467;SHT30;68933;49.726;9.226;2023-11-18T02:07:06;7.6;77
79467;SHT30;68933;49.726;9.226;2023-11-18T02:09:19;7.6;77
79467;SHT30;68933;49.726;9.226;2023-11-18T02:11:35;7.6;77
79467;SHT30;68933;49.726;9.226;2023-11-18T02:13:47;7.6;77
79467;SHT30;68933;49.726;9.226;2023-11-18T02:15:58;7.6;78
79467;SHT30;68933;49.726;9.226;2023-11-18T02:18:11;7.6;78
79467;SHT30;68933;49.726;9.226;2023-11-18T02:20:24;7.6;78
79467;SHT30;68933;49.726;9.226;2023-11-18T02:22:37;7.6;78
79467;SHT30;68933;49.726;9.226;2023-11-18T02:24:50;7.6;78
79467;SHT30;68933;49.726;9.226;2023-11-18T02:27:04;7.5;78
79467;SHT30;68933;49.726;9.226;2023-11-18T02:29:16;7.5;78
79467;SHT30;68933;49.726;9.226;2023-11-18T02:31:30;7.5;78
79467;SHT30;68933;49.726;9.226;2023-11-18T02:33:43;7.5;78
79467;SHT30;68933;49.726;9.226;2023-11-18T02:35:57;7.5;78
79467;SHT30;68933;49.726;9.226;2023-11-18T02:38:08;7.5;78
79467;SHT30;68933;49.726;9.226;2023-11-18T02:40:23;7.5;78
79467;SHT30;68933;49.726;9.226;2023-11-18T02:42:34;7.4;78
79467;SHT30;68933;49.726;9.226;2023-11-18T02:44:47;7.4;78
79467;SHT30;68933;49.726;9.226;2023-11-18T02:47:00;7.4;79
79467;SHT30;68933;49.726;9.226;2023-11-18T02:49:13;7.4;79
79467;SHT30;68933;49.726;9.226;2023-11-18T02:51:26;7.4;78
79467;SHT30;68933;49.726;9.226;2023-11-18T02:53:39;7.4;78
79467;SHT30;68933;49.726;9.226;2023-11-18T02:55:52;7.4;78
79467;SHT30;68933;49.726;9.226;2023-11-18T02:58:05;7.4;79
79467;SHT30;68933;49.726;9.226;2023-11-18T03:00:18;7.4;79
79467;SHT30;68933;49.726;9.226;2023-11-18T03:02:31;7.3;79
79467;SHT30;68933;49.726;9.226;2023-11-18T03:04:44;7.3;79
79467;SHT30;68933;49.726;9.226;2023-11-18T03:06:57;7.3;79
79467;SHT30;68933;49.726;9.226;2023-11-18T03:09:10;7.3;79
79467;SHT30;68933;49.726;9.226;2023-11-18T03:11:23;7.3;79
79467;SHT30;68933;49.726;9.226;2023-11-18T03:13:37;7.2;79
79467;SHT30;68933;49.726;9.226;2023-11-18T03:15:49;7.2;79
79467;SHT30;68933;49.726;9.226;2023-11-18T03:18:02;7.2;79
79467;SHT30;68933;49.726;9.226;2023-11-18T03:20:15;7.2;79
79467;SHT30;68933;49.726;9.226;2023-11-18T03:22:28;7.2;79
79467;SHT30;68933;49.726;9.226;2023-11-18T03:24:41;7.2;79
79467;SHT30;68933;49.726;9.226;2023-11-18T03:26:54;7.1;79
79467;SHT30;68933;49.726;9.226;2023-11-18T03:29:07;7.1;79
79467;SHT30;68933;49.726;9.226;2023-11-18T03:31:20;7.1;79
79467;SHT30;68933;49.726;9.226;2023-11-18T03:33:33;7.1;79
79467;SHT30;68933;49.726;9.226;2023-11-18T03:35:46;7.1;79
79467;SHT30;68933;49.726;9.226;2023-11-18T03:37:59;7.1;79
79467;SHT30;68933;49.726;9.226;2023-11-18T03:40:13;7.1;79
79467;SHT30;68933;49.726;9.226;2023-11-18T03:42:25;7.1;79
79467;SHT30;68933;49.726;9.226;2023-11-18T03:44:38;7.1;79
79467;SHT30;68933;49.726;9.226;2023-11-18T03:46:51;7;79
79467;SHT30;68933;49.726;9.226;2023-11-18T03:49:04;7;79
79467;SHT30;68933;49.726;9.226;2023-11-18T03:51:17;7;79
79467;SHT30;68933;49.726;9.226;2023-11-18T03:53:30;7;79
79467;SHT30;68933;49.726;9.226;2023-11-18T03:55:43;7;81
79467;SHT30;68933;49.726;9.226;2023-11-18T03:57:56;7;81
79467;SHT30;68933;49.726;9.226;2023-11-18T04:00:09;7;81
79467;SHT30;68933;49.726;9.226;2023-11-18T04:02:22;7;79
79467;SHT30;68933;49.726;9.226;2023-11-18T04:04:35;7;79
79467;SHT30;68933;49.726;9.226;2023-11-18T04:06:48;7;79
79467;SHT30;68933;49.726;9.226;2023-11-18T04:09:01;7;79
79467;SHT30;68933;49.726;9.226;2023-11-18T04:11:14;6.9;79
79467;SHT30;68933;49.726;9.226;2023-11-18T04:13:27;6.9;79
79467;SHT30;68933;49.726;9.226;2023-11-18T04:15:40;6.9;79
79467;SHT30;68933;49.726;9.226;2023-11-18T04:17:53;6.9;79
79467;SHT30;68933;49.726;9.226;2023-11-18T04:20:06;6.9;79
79467;SHT30;68933;49.726;9.226;2023-11-18T04:22:19;6.8;79
79467;SHT30;68933;49.726;9.226;2023-11-18T04:24:32;6.8;79
79467;SHT30;68933;49.726;9.226;2023-11-18T04:26:45;6.8;80
79467;SHT30;68933;49.726;9.226;2023-11-18T04:28:58;6.8;80
79467;SHT30;68933;49.726;9.226;2023-11-18T04:31:11;6.8;80
79467;SHT30;68933;49.726;9.226;2023-11-18T04:33:24;6.7;80
79467;SHT30;68933;49.726;9.226;2023-11-18T04:35:37;6.7;80
79467;SHT30;68933;49.726;9.226;2023-11-18T04:37:50;6.7;80
79467;SHT30;68933;49.726;9.226;2023-11-18T04:40:03;6.7;80
79467;SHT30;68933;49.726;9.226;2023-11-18T04:42:16;6.7;80
79467;SHT30;68933;49.726;9.226;2023-11-18T04:44:29;6.7;80
79467;SHT30;68933;49.726;9.226;2023-11-18T04:46:42;6.7;80
79467;SHT30;68933;49.726;9.226;2023-11-18T04:48:55;6.6;80
79467;SHT30;68933;49.726;9.226;2023-11-18T04:51:08;6.6;80
79467;SHT30;68933;49.726;9.226;2023-11-18T04:53:21;6.6;80
79467;SHT30;68933;49.726;9.226;2023-11-18T04:55:34;6.5;80
79467;SHT30;68933;49.726;9.226;2023-11-18T04:57:47;6.5;80
79467;SHT30;68933;49.726;9.226;2023-11-18T05:00:00;6.5;80
79467;SHT30;68933;49.726;9.226;2023-11-18T05:02:13;6.5;80
79467;SHT30;68933;49.726;9.226;2023-11-18T05:04:26;6.5;80
79467;SHT30;68933;49.726;9.226;2023-11-18T05:06:39;6.5;80
79467;SHT30;68933;49.726;9.226;2023-11-18T05:08:52;6.5;80
79467;SHT30;68933;49.726;9.226;2023-11-18T05:11:05;6.5;80
79467;SHT30;68933;49.726;9.226;2023-11-18T05:13:18;6.5;80
79467;SHT30;68933;49.726;9.226;2023-11-18T05:15:31;6.5;80
79467;SHT30;68933;49.726;9.226;2023-11-18T05:17:44;6.5;80
79467;SHT30;68933;49.726;9.226;2023-11-18T05:19:57;6.5;80
79467;SHT30;68933;49.726;9.226;2023-11-18T05:22:10;6.5;80
79467;SHT30;68933;49.726;9.226;2023-11-18T05:24:23;6.5;80
79467;SHT30;68933;49.726;9.226;2023-11-18T05:26:36;6.5;80
79467;SHT30;68933;49.726;9.226;2023-11-18T05:28:49;6.5;80
79467;SHT30;68933;49.726;9.226;2023-11-18T05:31:02;6.4;80
79467;SHT30;68933;49.726;9.226;2023-11-18T05:33:15;6.4;80
79467;SHT30;68933;49.726;9.226;2023-11-18T05:35:28;6.4;80
79467;SHT30;68933;49.726;9.226;2023-11-18T05:37:41;6.4;80
79467;SHT30;68933;49.726;9.226;2023-11-18T05:39:54;6.4;80
79467;SHT30;68933;49.726;9.226;2023-11-18T05:42:07;6.3;80
79467;SHT30;68933;49.726;9.226;2023-11-18T05:44:20;6.3;80
79467;SHT30;68933;49.726;9.226;2023-11-18T05:46:33;6.2;81
79467;SHT30;68933;49.726;9.226;2023-11-18T05:48:46;6.2;81
79467;SHT30;68933;49.726;9.226;2023-11-18T05:50:59;6.2;81
79467;SHT30;68933;49.726;9.226;2023-11-18T05:53:12;6.1;81
79467;SHT30;68933;49.726;9.226;2023-11-18T05:55:25;6.1;81
79467;SHT30;68933;49.726;9.226;2023-11-18T05:57:38;6.1;81
79467;SHT30;68933;49.726;9.226;2023-11-18T05:59:51;6.1;81
79467;SHT30;68933;49.726;9.226;2023-11-18T06:02:04;6;81
79467;SHT30;68933;49.726;9.226;2023-11-18T06:04:17;6;81
79467;SHT30;68933;49.726;9.226;2023-11-18T06:06:30;6;81
79467;SHT30;68933;49.726;9.226;2023-11-18T06:08:43;6;81
79467;SHT30;68933;49.726;9.226;2023-11-18T06:10:56;6;81
79467;SHT30;68933;49.726;9.226;2023-11-18T06:13:09;5.9;81
79467;SHT30;68933;49.726;9.226;2023-11-18T06:15:22;5.9;81
79467;SHT30;68933;49.726;9.226;2023-11-18T06:17:35;5.9;81
79467;SHT30;68933;49.726;9.226;2023-11-18T06:19:48;5.9;81
79467;SHT30;68933;49.726;9.226;2023-11-18T06:22:01;5.8;81
79467;SHT30;68933;49.726;9.226;2023-11-18T06:24:14;5.8;81
79467;SHT30;68933;49.726;9.226;2023-11-18T06:26:27;5.8;81
79467;SHT30;68933;49.726;9.226;2023-11-18T06:28:40;5.7;81
79467;SHT30;68933;49.726;9.226;2023-11-18T06:30:53;5.7;81
79467;SHT30;68933;49.726;9.226;2023-11-18T06:33:06;5.7;81
79467;SHT30;68933;49.726;9.226;2023-11-18T06:35:19;5.7;81
79467;SHT30;68933;49.726;9.226;2023-11-18T06:37:32;5.6;81
79467;SHT30;68933;49.726;9.226;2023-11-18T06:39:45;5.6;81
79467;SHT30;68933;49.726;9.226;2023-11-18T06:41:58;5.7;81
79467;SHT30;68933;49.726;9.226;2023-11-18T06:44:11;5.7;81
79467;SHT30;68933;49.726;9.226;2023-11-18T06:46:25;5.7;81
79467;SHT30;68933;49.726;9.226;2023-11-18T06:48:37;5.7;81
79467;SHT30;68933;49.726;9.226;2023-11-18T06:50:50;5.7;81
79467;SHT30;68933;49.726;9.226;2023-11-18T06:53:03;5.7;82
79467;SHT30;68933;49.726;9.226;2023-11-18T06:55:16;5.7;82
79467;SHT30;68933;49.726;9.226;2023-11-18T06:57:29;5.8;82
79467;SHT30;68933;49.726;9.226;2023-11-18T06:59:42;5.8;82
79467;SHT30;68933;49.726;9.226;2023-11-18T07:01:55;5.8;81
79467;SHT30;68933;49.726;9.226;2023-11-18T07:04:08;5.8;81
79467;SHT30;68933;49.726;9.226;2023-11-18T07:06:21;5.8;81
79467;SHT30;68933;49.726;9.226;2023-11-18T07:08:34;5.8;81
79467;SHT30;68933;49.726;9.226;2023-11-18T07:10:47;5.8;81
79467;SHT30;68933;49.726;9.226;2023-11-18T07:13:00;5.8;81
79467;SHT30;68933;49.726;9.226;2023-11-18T07:15:13;5.8;81
79467;SHT30;68933;49.726;9.226;2023-11-18T07:17:26;5.8;81
79467;SHT30;68933;49.726;9.226;2023-11-18T07:19:39;5.8;81
79467;SHT30;68933;49.726;9.226;2023-11-18T07:21:53;5.8;81
79467;SHT30;68933;49.726;9.226;2023-11-18T07:24:05;5.8;81
79467;SHT30;68933;49.726;9.226;2023-11-18T07:26:18;5.8;81
79467;SHT30;68933;49.726;9.226;2023-11-18T07:28:31;5.8;81
79467;SHT30;68933;49.726;9.226;2023-11-18T07:30:44;5.7;81
79467;SHT30;68933;49.726;9.226;2023-11-18T07:32:57;5.7;81
79467;SHT30;68933;49.726;9.226;2023-11-18T07:35:10;5.7;81
79467;SHT30;68933;49.726;9.226;2023-11-18T07:37:23;5.8;81
79467;SHT30;68933;49.726;9.226;2023-11-18T07:39:36;5.8;81
79467;SHT30;68933;49.726;9.226;2023-11-18T07:41:49;5.9;81
79467;SHT30;68933;49.726;9.226;2023-11-18T07:44:02;5.9;81
79467;SHT30;68933;49.726;9.226;2023-11-18T07:46:15;5.9;81
79467;SHT30;68933;49.726;9.226;2023-11-18T07:48:28;5.9;81
79467;SHT30;68933;49.726;9.226;2023-11-18T07:50:41;5.9;81
79467;SHT30;68933;49.726;9.226;2023-11-18T07:52:54;6;81
79467;SHT30;68933;49.726;9.226;2023-11-18T07:55:07;6;81
79467;SHT30;68933;49.726;9.226;2023-11-18T07:57:20;6.1;81
79467;SHT30;68933;49.726;9.226;2023-11-18T07:59:33;6.1;81
79467;SHT30;68933;49.726;9.226;2023-11-18T08:01:46;6.1;81
79467;SHT30;68933;49.726;9.226;2023-11-18T08:03:59;6.2;81
79467;SHT30;68933;49.726;9.226;2023-11-18T08:06:12;6.2;81
79467;SHT30;68933;49.726;9.226;2023-11-18T08:08:25;6.3;81
79467;SHT30;68933;49.726;9.226;2023-11-18T08:10:39;6.3;81
79467;SHT30;68933;49.726;9.226;2023-11-18T08:12:51;6.3;81
79467;SHT30;68933;49.726;9.226;2023-11-18T08:15:04;6.4;80
79467;SHT30;68933;49.726;9.226;2023-11-18T08:17:17;6.4;80
79467;SHT30;68933;49.726;9.226;2023-11-18T08:19:30;6.4;80
79467;SHT30;68933;49.726;9.226;2023-11-18T08:21:43;6.4;80
79467;SHT30;68933;49.726;9.226;2023-11-18T08:23:56;6.5;80
79467;SHT30;68933;49.726;9.226;2023-11-18T08:26:11;6.5;80
79467;SHT30;68933;49.726;9.226;2023-11-18T08:28:22;6.5;80
79467;SHT30;68933;49.726;9.226;2023-11-18T08:30:37;6.5;80
79467;SHT30;68933;49.726;9.226;2023-11-18T08:32:48;6.5;80
79467;SHT30;68933;49.726;9.226;2023-11-18T08:35:01;6.7;80
79467;SHT30;68933;49.726;9.226;2023-11-18T08:37:14;6.7;80
79467;SHT30;68933;49.726;9.226;2023-11-18T08:39:27;6.7;80
79467;SHT30;68933;49.726;9.226;2023-11-18T08:41:40;6.7;80
79467;SHT30;68933;49.726;9.226;2023-11-18T08:43:53;6.7;80
79467;SHT30;68933;49.726;9.226;2023-11-18T08:46:06;6.7;80
79467;SHT30;68933;49.726;9.226;2023-11-18T08:48:19;6.7;80
79467;SHT30;68933;49.726;9.226;2023-11-18T08:50:32;6.8;79
79467;SHT30;68933;49.726;9.226;2023-11-18T08:52:45;6.8;79
79467;SHT30;68933;49.726;9.226;2023-11-18T08:54:58;6.9;81
79467;SHT30;68933;49.726;9.226;2023-11-18T08:57:11;6.9;81
79467;SHT30;68933;49.726;9.226;2023-11-18T08:59:24;6.9;81
79467;SHT30;68933;49.726;9.226;2023-11-18T09:01:37;6.9;79
79467;SHT30;68933;49.726;9.226;2023-11-18T09:03:50;6.9;79
79467;SHT30;68933;49.726;9.226;2023-11-18T09:06:04;7;79
79467;SHT30;68933;49.726;9.226;2023-11-18T09:08:16;7;79
79467;SHT30;68933;49.726;9.226;2023-11-18T09:10:29;7.1;79
79467;SHT30;68933;49.726;9.226;2023-11-18T09:12:42;7.1;79
79467;SHT30;68933;49.726;9.226;2023-11-18T09:14:55;7.1;79
79467;SHT30;68933;49.726;9.226;2023-11-18T09:17:08;7.2;79
79467;SHT30;68933;49.726;9.226;2023-11-18T09:19:21;7.2;79
79467;SHT30;68933;49.726;9.226;2023-11-18T09:21:34;7.3;79
79467;SHT30;68933;49.726;9.226;2023-11-18T09:23:47;7.3;79
79467;SHT30;68933;49.726;9.226;2023-11-18T09:26:00;7.5;79
79467;SHT30;68933;49.726;9.226;2023-11-18T09:28:14;7.5;79
79467;SHT30;68933;49.726;9.226;2023-11-18T09:30:26;7.7;79
79467;SHT30;68933;49.726;9.226;2023-11-18T09:32:39;7.7;79
79467;SHT30;68933;49.726;9.226;2023-11-18T09:34:52;7.8;78
79467;SHT30;68933;49.726;9.226;2023-11-18T09:37:05;7.8;78
79467;SHT30;68933;49.726;9.226;2023-11-18T09:39:18;7.8;78
79467;SHT30;68933;49.726;9.226;2023-11-18T09:41:31;7.9;78
79467;SHT30;68933;49.726;9.226;2023-11-18T09:43:45;7.9;78
79467;SHT30;68933;49.726;9.226;2023-11-18T09:45:58;8.1;78
79467;SHT30;68933;49.726;9.226;2023-11-18T09:48:10;8.1;78
79467;SHT30;68933;49.726;9.226;2023-11-18T09:50:24;8.1;78
79467;SHT30;68933;49.726;9.226;2023-11-18T09:52:36;8.1;78
79467;SHT30;68933;49.726;9.226;2023-11-18T09:54:50;8.2;78
79467;SHT30;68933;49.726;9.226;2023-11-18T09:57:03;8.2;78
79467;SHT30;68933;49.726;9.226;2023-11-18T09:59:16;8.3;77
79467;SHT30;68933;49.726;9.226;2023-11-18T10:01:28;8.3;77
79467;SHT30;68933;49.726;9.226;2023-11-18T10:03:41;8.4;77
79467;SHT30;68933;49.726;9.226;2023-11-18T10:05:54;8.4;77
79467;SHT30;68933;49.726;9.226;2023-11-18T10:08:07;8.4;77
79467;SHT30;68933;49.726;9.226;2023-11-18T10:10:20;8.4;78
79467;SHT30;68933;49.726;9.226;2023-11-18T10:12:33;8.4;78
79467;SHT30;68933;49.726;9.226;2023-11-18T10:14:46;8.6;78
79467;SHT30;68933;49.726;9.226;2023-11-18T10:17:02;8.6;78
79467;SHT30;68933;49.726;9.226;2023-11-18T10:19:12;8.6;78
79467;SHT30;68933;49.726;9.226;2023-11-18T10:21:34;8.8;76
79467;SHT30;68933;49.726;9.226;2023-11-18T10:23:38;8.8;76
79467;SHT30;68933;49.726;9.226;2023-11-18T10:25:52;9;76
79467;SHT30;68933;49.726;9.226;2023-11-18T10:28:04;9;76
79467;SHT30;68933;49.726;9.226;2023-11-18T10:30:17;9;76
79467;SHT30;68933;49.726;9.226;2023-11-18T10:32:30;9.1;76
79467;SHT30;68933;49.726;9.226;2023-11-18T10:34:43;9.1;76
79467;SHT30;68933;49.726;9.226;2023-11-18T10:36:59;9.1;75
79467;SHT30;68933;49.726;9.226;2023-11-18T10:39:10;9.1;75
79467;SHT30;68933;49.726;9.226;2023-11-18T10:41:22;9.2;75
79467;SHT30;68933;49.726;9.226;2023-11-18T10:43:35;9.2;75
79467;SHT30;68933;49.726;9.226;2023-11-18T10:45:48;9.2;75
79467;SHT30;68933;49.726;9.226;2023-11-18T10:48:01;9.3;75
79467;SHT30;68933;49.726;9.226;2023-11-18T10:50:14;9.3;75
79467;SHT30;68933;49.726;9.226;2023-11-18T10:52:27;9.3;74
79467;SHT30;68933;49.726;9.226;2023-11-18T10:54:49;9.3;74
79467;SHT30;68933;49.726;9.226;2023-11-18T10:56:53;9.3;74
79467;SHT30;68933;49.726;9.226;2023-11-18T10:59:06;9.4;74
79467;SHT30;68933;49.726;9.226;2023-11-18T11:01:27;9.4;74
79467;SHT30;68933;49.726;9.226;2023-11-18T11:03:32;9.4;74
79467;SHT30;68933;49.726;9.226;2023-11-18T11:05:45;9.4;74
79467;SHT30;68933;49.726;9.226;2023-11-18T11:07:58;9.4;74
79467;SHT30;68933;49.726;9.226;2023-11-18T11:10:11;9.5;74
79467;SHT30;68933;49.726;9.226;2023-11-18T11:12:25;9.5;74
79467;SHT30;68933;49.726;9.226;2023-11-18T11:14:39;9.6;72
79467;SHT30;68933;49.726;9.226;2023-11-18T11:16:51;9.6;72
79467;SHT30;68933;49.726;9.226;2023-11-18T11:19:04;9.6;72
79467;SHT30;68933;49.726;9.226;2023-11-18T11:21:18;9.6;72
79467;SHT30;68933;49.726;9.226;2023-11-18T11:23:30;9.6;72
79467;SHT30;68933;49.726;9.226;2023-11-18T11:25:43;9.7;72
79467;SHT30;68933;49.726;9.226;2023-11-18T11:27:56;9.7;72
79467;SHT30;68933;49.726;9.226;2023-11-18T11:30:10;9.8;72
79467;SHT30;68933;49.726;9.226;2023-11-18T11:32:23;9.8;72
79467;SHT30;68933;49.726;9.226;2023-11-18T11:34:34;9.8;72
79467;SHT30;68933;49.726;9.226;2023-11-18T11:36:47;9.8;72
79467;SHT30;68933;49.726;9.226;2023-11-18T11:39:00;9.8;72
79467;SHT30;68933;49.726;9.226;2023-11-18T11:41:13;9.8;71
79467;SHT30;68933;49.726;9.226;2023-11-18T11:43:26;9.8;71
79467;SHT30;68933;49.726;9.226;2023-11-18T11:45:39;9.8;71
79467;SHT30;68933;49.726;9.226;2023-11-18T11:47:52;9.8;71
79467;SHT30;68933;49.726;9.226;2023-11-18T11:50:06;9.8;72
79467;SHT30;68933;49.726;9.226;2023-11-18T11:52:19;9.8;72
79467;SHT30;68933;49.726;9.226;2023-11-18T11:54:34;9.8;72
79467;SHT30;68933;49.726;9.226;2023-11-18T11:56:44;9.8;72
79467;SHT30;68933;49.726;9.226;2023-11-18T11:58:57;9.8;72
79467;SHT30;68933;49.726;9.226;2023-11-18T12:01:15;9.8;72
79467;SHT30;68933;49.726;9.226;2023-11-18T12:03:23;9.8;72
79467;SHT30;68933;49.726;9.226;2023-11-18T12:05:36;9.8;72
79467;SHT30;68933;49.726;9.226;2023-11-18T12:07:49;9.8;72
79467;SHT30;68933;49.726;9.226;2023-11-18T12:10:02;9.9;72
79467;SHT30;68933;49.726;9.226;2023-11-18T12:12:16;9.9;72
79467;SHT30;68933;49.726;9.226;2023-11-18T12:14:28;9.9;72
79467;SHT30;68933;49.726;9.226;2023-11-18T12:17:01;9.9;72
79467;SHT30;68933;49.726;9.226;2023-11-18T12:19:21;9.8;72
79467;SHT30;68933;49.726;9.226;2023-11-18T12:21:07;9.8;72
79467;SHT30;68933;49.726;9.226;2023-11-18T12:23:20;9.8;72
79467;SHT30;68933;49.726;9.226;2023-11-18T12:25:33;9.9;72
79467;SHT30;68933;49.726;9.226;2023-11-18T12:27:46;9.9;72
79467;SHT30;68933;49.726;9.226;2023-11-18T12:29:59;10;72
79467;SHT30;68933;49.726;9.226;2023-11-18T12:32:12;10;72
79467;SHT30;68933;49.726;9.226;2023-11-18T12:34:48;10;72
79467;SHT30;68933;49.726;9.226;2023-11-18T12:36:46;10;72
79467;SHT30;68933;49.726;9.226;2023-11-18T12:38:59;10;72
79467;SHT30;68933;49.726;9.226;2023-11-18T12:41:04;10;72
79467;SHT30;68933;49.726;9.226;2023-11-18T12:43:17;10;72
79467;SHT30;68933;49.726;9.226;2023-11-18T12:45:39;10;72
79467;SHT30;68933;49.726;9.226;2023-11-18T12:47:43;10;72
79467;SHT30;68933;49.726;9.226;2023-11-18T12:49:56;10.1;72
79467;SHT30;68933;49.726;9.226;2023-11-18T12:52:10;10.1;72
79467;SHT30;68933;49.726;9.226;2023-11-18T12:54:22;10.1;72
79467;SHT30;68933;49.726;9.226;2023-11-18T12:56:35;10.1;72
79467;SHT30;68933;49.726;9.226;2023-11-18T12:58:48;10.1;71
79467;SHT30;68933;49.726;9.226;2023-11-18T13:01:01;10.1;71
79467;SHT30;68933;49.726;9.226;2023-11-18T13:03:14;10;71
79467;SHT30;68933;49.726;9.226;2023-11-18T13:05:27;10;71
79467;SHT30;68933;49.726;9.226;2023-11-18T13:07:40;10;71
79467;SHT30;68933;49.726;9.226;2023-11-18T13:09:53;10;71
79467;SHT30;68933;49.726;9.226;2023-11-18T13:12:06;10;71
79467;SHT30;68933;49.726;9.226;2023-11-18T13:14:19;10;72
79467;SHT30;68933;49.726;9.226;2023-11-18T13:16:32;10;72
79467;SHT30;68933;49.726;9.226;2023-11-18T13:18:46;10;72
79467;SHT30;68933;49.726;9.226;2023-11-18T13:20:58;10;72
79467;SHT30;68933;49.726;9.226;2023-11-18T13:23:11;9.9;71
79467;SHT30;68933;49.726;9.226;2023-11-18T13:25:24;9.9;71
79467;SHT30;68933;49.726;9.226;2023-11-18T13:27:37;9.9;71
79467;SHT30;68933;49.726;9.226;2023-11-18T13:29:50;9.9;72
79467;SHT30;68933;49.726;9.226;2023-11-18T13:32:03;9.9;72
79467;SHT30;68933;49.726;9.226;2023-11-18T13:34:16;9.9;71
79467;SHT30;68933;49.726;9.226;2023-11-18T13:36:29;9.9;71
79467;SHT30;68933;49.726;9.226;2023-11-18T13:38:42;9.9;71
79467;SHT30;68933;49.726;9.226;2023-11-18T13:40:55;9.8;71
79467;SHT30;68933;49.726;9.226;2023-11-18T13:43:08;9.8;71
79467;SHT30;68933;49.726;9.226;2023-11-18T13:45:21;9.8;72
79467;SHT30;68933;49.726;9.226;2023-11-18T13:47:34;9.8;72
79467;SHT30;68933;49.726;9.226;2023-11-18T13:49:49;9.8;72
79467;SHT30;68933;49.726;9.226;2023-11-18T13:52:00;9.8;72
79467;SHT30;68933;49.726;9.226;2023-11-18T13:54:13;9.8;72
79467;SHT30;68933;49.726;9.226;2023-11-18T13:56:27;9.7;72
79467;SHT30;68933;49.726;9.226;2023-11-18T13:58:39;9.7;72
79467;SHT30;68933;49.726;9.226;2023-11-18T14:00:52;9.7;72
79467;SHT30;68933;49.726;9.226;2023-11-18T14:03:05;9.7;74
79467;SHT30;68933;49.726;9.226;2023-11-18T14:05:18;9.7;74
79467;SHT30;68933;49.726;9.226;2023-11-18T14:07:31;9.6;74
79467;SHT30;68933;49.726;9.226;2023-11-18T14:09:44;9.6;74
79467;SHT30;68933;49.726;9.226;2023-11-18T14:11:58;9.6;74
79467;SHT30;68933;49.726;9.226;2023-11-18T14:14:10;9.6;74
79467;SHT30;68933;49.726;9.226;2023-11-18T14:16:23;9.6;74
79467;SHT30;68933;49.726;9.226;2023-11-18T14:18:36;9.5;74
79467;SHT30;68933;49.726;9.226;2023-11-18T14:20:49;9.5;74
79467;SHT30;68933;49.726;9.226;2023-11-18T14:23:02;9.5;74
79467;SHT30;68933;49.726;9.226;2023-11-18T14:25:15;9.5;74
79467;SHT30;68933;49.726;9.226;2023-11-18T14:27:28;9.5;74
79467;SHT30;68933;49.726;9.226;2023-11-18T14:29:41;9.5;74
79467;SHT30;68933;49.726;9.226;2023-11-18T14:31:54;9.5;74
79467;SHT30;68933;49.726;9.226;2023-11-18T14:34:07;9.5;74
79467;SHT30;68933;49.726;9.226;2023-11-18T14:36:20;9.5;74
79467;SHT30;68933;49.726;9.226;2023-11-18T14:38:33;9.4;75
79467;SHT30;68933;49.726;9.226;2023-11-18T14:40:46;9.4;75
79467;SHT30;68933;49.726;9.226;2023-11-18T14:42:59;9.4;75
79467;SHT30;68933;49.726;9.226;2023-11-18T14:45:13;9.4;75
79467;SHT30;68933;49.726;9.226;2023-11-18T14:47:25;9.4;75
79467;SHT30;68933;49.726;9.226;2023-11-18T14:49:38;9.4;75
79467;SHT30;68933;49.726;9.226;2023-11-18T14:51:51;9.4;75
79467;SHT30;68933;49.726;9.226;2023-11-18T14:54:04;9.3;75
79467;SHT30;68933;49.726;9.226;2023-11-18T14:56:17;9.3;75
79467;SHT30;68933;49.726;9.226;2023-11-18T14:58:30;9.2;75
79467;SHT30;68933;49.726;9.226;2023-11-18T15:00:44;9.2;75
79467;SHT30;68933;49.726;9.226;2023-11-18T15:02:56;9.2;75
79467;SHT30;68933;49.726;9.226;2023-11-18T15:05:09;9.2;75
79467;SHT30;68933;49.726;9.226;2023-11-18T15:07:22;9.2;75
79467;SHT30;68933;49.726;9.226;2023-11-18T15:09:35;9.2;75
79467;SHT30;68933;49.726;9.226;2023-11-18T15:11:48;9.2;75
79467;SHT30;68933;49.726;9.226;2023-11-18T15:14:01;9.2;75
79467;SHT30;68933;49.726;9.226;2023-11-18T15:16:14;9.2;75
79467;SHT30;68933;49.726;9.226;2023-11-18T15:18:27;9.2;75